Time;durP1;ratioP1;P1;durP2;ratioP2;P2;SDS_P1;SDS_P2;PMS_P1;PMS_P2;Temp;Humidity;BMP_temperature;BMP_pressure;BME280_temperature;BME280_humidity;BME280_pressure;Samples;Min_cycle;Max_cycle;Signal;HPM_P1;HPM_P2
2021/05/19 00:01:32;;;;;;;;;;;;;;;;;;5015889;28;19921;-39
2021/05/19 00:03:58;;;;;;;;;;;;;;;;;;5031233;28;20023;-39
2021/05/19 00:06:24;;;;;;;;;;;;;;;;;;5026219;28;19919;-39
2021/05/19 00:08:50;;;;;;;;;;;;;;;;;;5031421;28;19924;-39
2021/05/19 00:11:15;;;;;;;;;;;;;;;;;;5029599;28;19917;-39
2021/05/19 00:13:41;;;;;;;;;;;;;;;;;;5032352;28;20071;-39
2021/05/19 00:16:07;;;;;;;;;;;;;;;;;;5024705;28;19947;-39
2021/05/19 00:18:33;;;;;;;;;;;;;;;;;;5018553;28;19917;-39
2021/05/19 00:20:59;;;;;;;;;;;;;;;;;;5005566;28;20404;-39
2021/05/19 00:23:25;;;;;;;;;;;;;;;;;;5028226;28;20717;-39
2021/05/19 00:25:51;;;;;;;;;;;;;;;;;;5033048;28;19913;-39
2021/05/19 00:28:17;;;;;;;;;;;;;;;;;;5022816;28;20298;-39
2021/05/19 00:30:44;;;;;;;;;;;;;;;;;;5026692;28;20350;-39
2021/05/19 00:33:10;;;;;;;;;;;;;;;;;;5026346;28;19979;-39
2021/05/19 00:35:36;;;;;;;;;;;;;;;;;;5034041;28;19948;-40
2021/05/19 00:38:02;;;;;;;;;;;;;;;;;;5007662;28;19997;-39
2021/05/19 00:40:28;;;;;;;;;;;;;;;;;;5036004;28;19923;-39
2021/05/19 00:42:54;;;;;;;;;;;;;;;;;;5026061;28;19973;-39
2021/05/19 00:45:20;;;;;;;;;;;;;;;;;;5013140;28;19909;-39
2021/05/19 00:47:46;;;;;;;;;;;;;;;;;;5024338;28;19913;-39
2021/05/19 00:50:12;;;;;;;;;;;;;;;;;;5030805;28;19974;-39
2021/05/19 00:52:38;;;;;;;;;;;;;;;;;;5025807;28;20542;-39
2021/05/19 00:55:04;;;;;;;;;;;;;;;;;;5032581;28;19912;-39
2021/05/19 00:57:30;;;;;;;;;;;;;;;;;;5026603;28;20448;-39
2021/05/19 00:59:56;;;;;;;;;;;;;;;;;;5013381;28;19913;-39
2021/05/19 01:02:22;;;;;;;;;;;;;;;;;;5033465;28;19967;-39
2021/05/19 01:04:48;;;;;;;;;;;;;;;;;;5020007;28;20181;-39
2021/05/19 01:07:25;;;;;;;;;;;;;;;;;;5032526;28;19913;-39
2021/05/19 01:09:51;;;;;;;;;;;;;;;;;;5024739;28;20542;-39
2021/05/19 01:12:17;;;;;;;;;;;;;;;;;;5030365;28;20433;-39
2021/05/19 01:14:43;;;;;;;;;;;;;;;;;;5023668;28;19982;-39
2021/05/19 01:17:09;;;;;;;;;;;;;;;;;;5028969;28;19943;-39
2021/05/19 01:19:35;;;;;;;;;;;;;;;;;;5025691;28;20282;-39
2021/05/19 01:22:01;;;;;;;;;;;;;;;;;;5027436;28;19996;-39
2021/05/19 01:24:27;;;;;;;;;;;;;;;;;;5023187;28;19974;-39
2021/05/19 01:26:53;;;;;;;;;;;;;;;;;;5031479;28;19908;-39
2021/05/19 01:29:18;;;;;;;;;;;;;;;;;;5007154;28;19921;-39
2021/05/19 01:31:44;;;;;;;;;;;;;;;;;;5025987;28;19973;-39
2021/05/19 01:34:10;;;;;;;;;;;;;;;;;;5020009;28;19920;-39
2021/05/19 01:36:36;;;;;;;;;;;;;;;;;;5030520;28;19919;-39
2021/05/19 01:39:02;;;;;;;;;;;;;;;;;;5029530;28;19997;-39
2021/05/19 01:41:28;;;;;;;;;;;;;;;;;;5023851;28;19912;-39
2021/05/19 01:43:54;;;;;;;;;;;;;;;;;;5037731;28;20289;-39
2021/05/19 01:46:20;;;;;;;;;;;;;;;;;;5019016;28;19912;-39
2021/05/19 01:48:46;;;;;;;;;;;;;;;;;;5029870;28;20385;-39
2021/05/19 01:51:11;;;;;;;;;;;;;;;;;;5025552;28;19917;-39
2021/05/19 01:53:37;;;;;;;;;;;;;;;;;;5032235;28;20317;-39
2021/05/19 01:56:03;;;;;;;;;;;;;;;;;;5024948;28;20015;-39
2021/05/19 01:58:29;;;;;;;;;;;;;;;;;;5021058;28;19943;-39
2021/05/19 02:00:55;;;;;;;;;;;;;;;;;;5028696;28;20348;-39
2021/05/19 02:03:21;;;;;;;;;;;;;;;;;;5026813;28;19921;-39
2021/05/19 02:05:47;;;;;;;;;;;;;;;;;;5024178;28;20422;-39
2021/05/19 02:08:13;;;;;;;;;;;;;;;;;;5029563;28;19964;-39
2021/05/19 02:10:39;;;;;;;;;;;;;;;;;;5027011;28;19943;-39
2021/05/19 02:13:04;;;;;;;;;;;;;;;;;;5014374;28;20067;-39
2021/05/19 02:15:30;;;;;;;;;;;;;;;;;;5012359;28;19967;-39
2021/05/19 02:17:58;;;;;;;;;;;;;;;;;;5023105;28;20301;-40
2021/05/19 02:20:24;;;;;;;;;;;;;;;;;;5026750;28;19917;-39
2021/05/19 02:22:50;;;;;;;;;;;;;;;;;;5004180;28;19966;-39
2021/05/19 02:25:16;;;;;;;;;;;;;;;;;;5009631;28;20407;-39
2021/05/19 02:27:42;;;;;;;;;;;;;;;;;;5025080;28;20007;-39
2021/05/19 02:30:09;;;;;;;;;;;;;;;;;;5026725;28;19948;-39
2021/05/19 02:32:35;;;;;;;;;;;;;;;;;;5024747;28;19925;-39
2021/05/19 02:35:01;;;;;;;;;;;;;;;;;;5025427;28;19925;-39
2021/05/19 02:37:27;;;;;;;;;;;;;;;;;;5023618;28;19951;-40
2021/05/19 02:39:52;;;;;;;;;;;;;;;;;;5025829;28;19928;-39
2021/05/19 02:42:18;;;;;;;;;;;;;;;;;;5004989;28;20175;-39
2021/05/19 02:44:44;;;;;;;;;;;;;;;;;;5029889;28;20101;-39
2021/05/19 02:47:10;;;;;;;;;;;;;;;;;;5021310;28;19913;-39
2021/05/19 02:49:36;;;;;;;;;;;;;;;;;;5030003;28;19913;-39
2021/05/19 02:52:02;;;;;;;;;;;;;;;;;;5011456;28;19913;-39
2021/05/19 02:54:28;;;;;;;;;;;;;;;;;;5021295;28;19999;-39
2021/05/19 02:56:54;;;;;;;;;;;;;;;;;;5028774;28;19913;-39
2021/05/19 02:59:20;;;;;;;;;;;;;;;;;;5024758;28;19984;-39
2021/05/19 03:01:47;;;;;;;;;;;;;;;;;;5028969;28;20011;-39
2021/05/19 03:04:12;;;;;;;;;;;;;;;;;;5023185;28;19917;-39
2021/05/19 03:06:38;;;;;;;;;;;;;;;;;;5025355;28;20501;-39
2021/05/19 03:09:04;;;;;;;;;;;;;;;;;;5024486;28;19963;-39
2021/05/19 03:11:30;;;;;;;;;;;;;;;;;;5012833;28;20366;-39
2021/05/19 03:13:56;;;;;;;;;;;;;;;;;;5023571;28;20427;-39
2021/05/19 03:16:22;;;;;;;;;;;;;;;;;;5028096;28;19965;-39
2021/05/19 03:18:48;;;;;;;;;;;;;;;;;;5008169;28;19963;-39
2021/05/19 03:21:14;;;;;;;;;;;;;;;;;;5028425;28;20369;-39
2021/05/19 03:23:40;;;;;;;;;;;;;;;;;;5021319;28;19909;-39
2021/05/19 03:26:07;;;;;;;;;;;;;;;;;;5026649;28;19917;-39
2021/05/19 03:28:33;;;;;;;;;;;;;;;;;;5027216;28;20225;-39
2021/05/19 03:30:59;;;;;;;;;;;;;;;;;;5020832;28;19912;-39
2021/05/19 03:33:25;;;;;;;;;;;;;;;;;;5030780;28;19935;-39
2021/05/19 03:35:50;;;;;;;;;;;;;;;;;;5014343;28;20554;-39
2021/05/19 03:38:16;;;;;;;;;;;;;;;;;;5033889;28;20258;-39
2021/05/19 03:40:42;;;;;;;;;;;;;;;;;;5023368;28;19947;-39
2021/05/19 03:43:08;;;;;;;;;;;;;;;;;;5032598;28;20203;-39
2021/05/19 03:45:34;;;;;;;;;;;;;;;;;;5025449;28;19928;-39
2021/05/19 03:48:00;;;;;;;;;;;;;;;;;;5030056;28;19946;-38
2021/05/19 03:50:27;;;;;;;;;;;;;;;;;;5027634;28;19923;-39
2021/05/19 03:52:53;;;;;;;;;;;;;;;;;;5034090;28;20240;-39
2021/05/19 03:55:19;;;;;;;;;;;;;;;;;;5026321;28;20385;-39
2021/05/19 03:57:45;;;;;;;;;;;;;;;;;;5029783;28;19923;-39
2021/05/19 04:00:11;;;;;;;;;;;;;;;;;;5008259;28;19917;-39
2021/05/19 04:02:37;;;;;;;;;;;;;;;;;;5026702;28;20174;-39
2021/05/19 04:05:03;;;;;;;;;;;;;;;;;;5034559;28;19962;-39
2021/05/19 04:07:29;;;;;;;;;;;;;;;;;;5024685;28;19927;-39
2021/05/19 04:09:55;;;;;;;;;;;;;;;;;;5034984;28;19924;-39
2021/05/19 04:12:21;;;;;;;;;;;;;;;;;;5023487;28;19913;-39
2021/05/19 04:14:46;;;;;;;;;;;;;;;;;;5029519;28;20147;-39
2021/05/19 04:17:12;;;;;;;;;;;;;;;;;;5023451;28;19916;-39
2021/05/19 04:19:38;;;;;;;;;;;;;;;;;;5033099;28;20209;-39
2021/05/19 04:22:04;;;;;;;;;;;;;;;;;;5027848;28;19959;-39
2021/05/19 04:24:30;;;;;;;;;;;;;;;;;;5030215;28;19920;-39
2021/05/19 04:26:56;;;;;;;;;;;;;;;;;;5011966;28;19913;-39
2021/05/19 04:29:22;;;;;;;;;;;;;;;;;;5031002;28;19996;-41
2021/05/19 04:31:48;;;;;;;;;;;;;;;;;;5022235;28;19967;-39
2021/05/19 04:34:14;;;;;;;;;;;;;;;;;;5034005;28;20664;-39
2021/05/19 04:36:40;;;;;;;;;;;;;;;;;;5032238;28;19952;-39
2021/05/19 04:39:06;;;;;;;;;;;;;;;;;;5022191;28;20114;-39
2021/05/19 04:41:31;;;;;;;;;;;;;;;;;;5029732;28;20318;-39
2021/05/19 04:43:57;;;;;;;;;;;;;;;;;;5024222;28;20186;-39
2021/05/19 04:46:23;;;;;;;;;;;;;;;;;;5028980;28;19924;-39
2021/05/19 04:48:49;;;;;;;;;;;;;;;;;;5021740;28;19936;-39
2021/05/19 04:51:15;;;;;;;;;;;;;;;;;;5034341;28;20230;-39
2021/05/19 04:53:41;;;;;;;;;;;;;;;;;;5023477;28;20354;-39
2021/05/19 04:56:07;;;;;;;;;;;;;;;;;;5010519;28;19928;-39
2021/05/19 04:58:33;;;;;;;;;;;;;;;;;;5025634;28;20038;-39
2021/05/19 05:00:59;;;;;;;;;;;;;;;;;;5027421;28;19999;-39
2021/05/19 05:03:24;;;;;;;;;;;;;;;;;;5025571;28;19963;-39
2021/05/19 05:05:51;;;;;;;;;;;;;;;;;;5027047;28;20341;-39
2021/05/19 05:08:17;;;;;;;;;;;;;;;;;;5025821;28;20282;-39
2021/05/19 05:10:43;;;;;;;;;;;;;;;;;;5031078;28;19920;-39
2021/05/19 05:13:09;;;;;;;;;;;;;;;;;;5033583;28;20023;-39
2021/05/19 05:15:35;;;;;;;;;;;;;;;;;;5023260;28;20341;-40
2021/05/19 05:18:01;;;;;;;;;;;;;;;;;;5027334;28;19913;-40
2021/05/19 05:20:26;;;;;;;;;;;;;;;;;;5007018;28;19983;-40
2021/05/19 05:22:53;;;;;;;;;;;;;;;;;;5028564;28;19915;-41
2021/05/19 05:25:20;;;;;;;;;;;;;;;;;;5022162;28;19926;-40
2021/05/19 05:27:49;;;;;;;;;;;;;;;;;;5032167;28;19913;-41
2021/05/19 05:30:15;;;;;;;;;;;;;;;;;;5022146;28;19924;-40
2021/05/19 05:32:40;;;;;;;;;;;;;;;;;;5025321;28;19917;-41
2021/05/19 05:35:06;;;;;;;;;;;;;;;;;;5025065;28;19913;-40
2021/05/19 05:37:32;;;;;;;;;;;;;;;;;;5027593;28;19917;-40
2021/05/19 05:39:58;;;;;;;;;;;;;;;;;;5025534;28;19909;-40
2021/05/19 05:42:26;;;;;;;;;;;;;;;;;;5028462;28;20382;-40
2021/05/19 05:44:52;;;;;;;;;;;;;;;;;;5009026;28;19909;-40
2021/05/19 05:47:17;;;;;;;;;;;;;;;;;;5015298;28;19939;-40
2021/05/19 05:49:43;;;;;;;;;;;;;;;;;;5030802;28;20111;-42
2021/05/19 05:52:09;;;;;;;;;;;;;;;;;;5004911;28;20362;-40
2021/05/19 05:54:35;;;;;;;;;;;;;;;;;;5035612;28;19920;-40
2021/05/19 05:57:01;;;;;;;;;;;;;;;;;;5024998;28;19987;-39
2021/05/19 05:59:27;;;;;;;;;;;;;;;;;;5032198;28;20079;-39
2021/05/19 06:01:53;;;;;;;;;;;;;;;;;;5023095;28;19928;-39
2021/05/19 06:04:19;;;;;;;;;;;;;;;;;;5030934;28;20003;-39
2021/05/19 06:06:45;;;;;;;;;;;;;;;;;;5024743;28;19921;-39
2021/05/19 06:09:11;;;;;;;;;;;;;;;;;;5028676;28;19963;-40
2021/05/19 06:11:36;;;;;;;;;;;;;;;;;;5005408;28;19963;-39
2021/05/19 06:14:02;;;;;;;;;;;;;;;;;;5034558;28;19917;-39
2021/05/19 06:16:28;;;;;;;;;;;;;;;;;;5021144;28;19931;-39
2021/05/19 06:18:54;;;;;;;;;;;;;;;;;;5027092;28;19910;-39
2021/05/19 06:21:20;;;;;;;;;;;;;;;;;;5022930;28;19917;-39
2021/05/19 06:23:46;;;;;;;;;;;;;;;;;;5031773;28;20771;-39
2021/05/19 06:26:12;;;;;;;;;;;;;;;;;;5031189;28;19916;-39
2021/05/19 06:28:38;;;;;;;;;;;;;;;;;;5024420;28;20249;-39
2021/05/19 06:31:04;;;;;;;;;;;;;;;;;;5026155;28;20393;-39
2021/05/19 06:33:30;;;;;;;;;;;;;;;;;;5023349;28;19912;-39
2021/05/19 06:35:55;;;;;;;;;;;;;;;;;;5029058;28;19944;-39
2021/05/19 06:38:21;;;;;;;;;;;;;;;;;;5004600;28;19971;-39
2021/05/19 06:40:47;;;;;;;;;;;;;;;;;;5011632;28;19965;-39
2021/05/19 06:43:13;;;;;;;;;;;;;;;;;;5020324;28;19981;-39
2021/05/19 06:45:39;;;;;;;;;;;;;;;;;;5014676;28;19934;-38
2021/05/19 06:48:05;;;;;;;;;;;;;;;;;;5024832;28;20245;-39
2021/05/19 06:50:31;;;;;;;;;;;;;;;;;;4998622;28;19952;-41
2021/05/19 06:52:57;;;;;;;;;;;;;;;;;;5016871;28;20256;-40
2021/05/19 06:55:23;;;;;;;;;;;;;;;;;;5023420;28;19963;-42
2021/05/19 06:57:49;;;;;;;;;;;;;;;;;;5020587;28;20007;-42
2021/05/19 07:00:15;;;;;;;;;;;;;;;;;;5017597;28;19990;-44
2021/05/19 07:02:41;;;;;;;;;;;;;;;;;;5027446;28;19925;-41
2021/05/19 07:05:07;;;;;;;;;;;;;;;;;;5020226;28;19920;-41
2021/05/19 07:07:33;;;;;;;;;;;;;;;;;;5012381;28;19959;-43
2021/05/19 07:09:59;;;;;;;;;;;;;;;;;;5021132;28;19963;-49
2021/05/19 07:12:24;;;;;;;;;;;;;;;;;;5016689;28;19913;-45
2021/05/19 07:14:53;;;;;;;;;;;;;;;;;;5022202;28;20485;-48
2021/05/19 07:17:22;;;;;;;;;;;;;;;;;;5033877;28;20003;-46
2021/05/19 07:19:48;;;;;;;;;;;;;;;;;;5027318;28;20014;-43
2021/05/19 07:22:14;;;;;;;;;;;;;;;;;;5018822;28;20022;-43
2021/05/19 07:24:40;;;;;;;;;;;;;;;;;;5013016;28;19927;-49
2021/05/19 07:27:06;;;;;;;;;;;;;;;;;;5026566;28;19927;-43
2021/05/19 07:29:31;;;;;;;;;;;;;;;;;;5034380;28;20360;-46
2021/05/19 07:31:59;;;;;;;;;;;;;;;;;;5020810;28;20090;-43
2021/05/19 07:34:24;;;;;;;;;;;;;;;;;;5036078;28;20018;-44
2021/05/19 07:36:50;;;;;;;;;;;;;;;;;;5025218;28;20475;-45
2021/05/19 07:39:18;;;;;;;;;;;;;;;;;;5020030;28;20347;-43
2021/05/19 07:41:44;;;;;;;;;;;;;;;;;;5023135;28;20316;-43
2021/05/19 07:44:09;;;;;;;;;;;;;;;;;;5033675;28;19974;-41
2021/05/19 07:46:35;;;;;;;;;;;;;;;;;;5025530;28;20343;-41
2021/05/19 07:49:01;;;;;;;;;;;;;;;;;;5036147;28;19917;-43
2021/05/19 07:51:27;;;;;;;;;;;;;;;;;;5021088;28;19924;-47
2021/05/19 07:53:54;;;;;;;;;;;;;;;;;;5031282;28;19912;-42
2021/05/19 07:56:28;;;;;;;;;;;;;;;;;;5017242;28;19982;-43
2021/05/19 08:04:00;;;;;;;;;;;;;;;;;;5026565;28;19913;-39
2021/05/19 08:06:26;;;;;;;;;;;;;;;;;;5030588;28;19928;-36
2021/05/19 08:08:52;;;;;;;;;;;;;;;;;;5024311;28;20007;-46
2021/05/19 08:11:18;;;;;;;;;;;;;;;;;;5028322;28;19917;-46
2021/05/19 08:13:46;;;;;;;;;;;;;;;;;;5030394;28;20373;-43
2021/05/19 08:16:12;;;;;;;;;;;;;;;;;;5029583;28;19962;-42
2021/05/19 08:18:38;;;;;;;;;;;;;;;;;;5030058;28;19912;-42
2021/05/19 08:21:04;;;;;;;;;;;;;;;;;;5031675;28;20285;-49
2021/05/19 08:23:30;;;;;;;;;;;;;;;;;;5027553;28;19967;-46
2021/05/19 08:25:56;;;;;;;;;;;;;;;;;;5029578;28;19924;-47
2021/05/19 08:28:22;;;;;;;;;;;;;;;;;;5023853;28;19909;-44
2021/05/19 08:30:48;;;;;;;;;;;;;;;;;;5030193;28;19986;-42
2021/05/19 08:33:13;;;;;;;;;;;;;;;;;;5016653;28;20408;-46
2021/05/19 08:35:39;;;;;;;;;;;;;;;;;;5022821;28;20042;-42
2021/05/19 08:38:05;;;;;;;;;;;;;;;;;;5032683;28;19928;-42
2021/05/19 08:40:31;;;;;;;;;;;;;;;;;;5023999;28;20164;-47
2021/05/19 08:42:57;;;;;;;;;;;;;;;;;;5036645;28;19945;-44
2021/05/19 08:45:23;;;;;;;;;;;;;;;;;;5022142;28;19990;-42
2021/05/19 08:47:49;;;;;;;;;;;;;;;;;;5034174;28;20385;-43
2021/05/19 08:50:15;;;;;;;;;;;;;;;;;;5023343;28;19993;-44
2021/05/19 08:52:43;;;;;;;;;;;;;;;;;;5017968;28;19967;-43
2021/05/19 08:55:09;;;;;;;;;;;;;;;;;;5020677;28;19924;-45
2021/05/19 08:57:36;;;;;;;;;;;;;;;;;;5026131;28;19913;-41
2021/05/19 09:00:02;;;;;;;;;;;;;;;;;;5026768;28;19909;-41
2021/05/19 09:02:28;;;;;;;;;;;;;;;;;;5016407;28;19967;-41
2021/05/19 09:04:54;;;;;;;;;;;;;;;;;;5022401;28;19996;-44
2021/05/19 09:07:20;;;;;;;;;;;;;;;;;;5013770;28;19961;-44
2021/05/19 09:09:46;;;;;;;;;;;;;;;;;;5031760;28;19972;-46
2021/05/19 09:12:12;;;;;;;;;;;;;;;;;;5006206;28;19944;-47
2021/05/19 09:14:38;;;;;;;;;;;;;;;;;;5027127;28;20015;-46
2021/05/19 09:17:04;;;;;;;;;;;;;;;;;;5024033;28;19945;-42
2021/05/19 09:19:30;;;;;;;;;;;;;;;;;;5031180;28;19916;-49
2021/05/19 09:21:55;;;;;;;;;;;;;;;;;;5026433;28;19908;-46
2021/05/19 09:24:24;;;;;;;;;;;;;;;;;;5028210;28;19942;-46
2021/05/19 09:26:50;;;;;;;;;;;;;;;;;;5028904;28;19913;-47
2021/05/19 09:29:16;;;;;;;;;;;;;;;;;;5025638;28;19917;-52
2021/05/19 09:31:42;;;;;;;;;;;;;;;;;;5016259;28;19917;-42
2021/05/19 09:34:08;;;;;;;;;;;;;;;;;;5028441;28;20333;-42
2021/05/19 09:36:34;;;;;;;;;;;;;;;;;;5024616;28;19994;-41
2021/05/19 09:39:00;;;;;;;;;;;;;;;;;;5027257;28;20054;-40
2021/05/19 09:41:28;;;;;;;;;;;;;;;;;;5028827;28;19921;-44
2021/05/19 09:43:56;;;;;;;;;;;;;;;;;;5016464;28;19965;-45
2021/05/19 09:46:24;;;;;;;;;;;;;;;;;;5023784;28;19923;-48
2021/05/19 09:48:50;;;;;;;;;;;;;;;;;;5017582;28;19978;-47
2021/05/19 09:51:16;;;;;;;;;;;;;;;;;;5020579;28;20012;-41
2021/05/19 09:53:42;;;;;;;;;;;;;;;;;;5014979;28;20023;-42
2021/05/19 09:56:08;;;;;;;;;;;;;;;;;;5028735;28;19923;-49
2021/05/19 09:58:36;;;;;;;;;;;;;;;;;;5017184;28;20675;-48
2021/05/19 10:01:02;;;;;;;;;;;;;;;;;;5024863;28;20012;-42
2021/05/19 10:03:27;;;;;;;;;;;;;;;;;;5020674;28;21735;-41
2021/05/19 10:06:02;;;;;;;;;;;;;;;;;;5025829;28;20137;-38
2021/05/19 10:08:28;;;;;;;;;;;;;;;;;;5027336;28;19935;-42
2021/05/19 10:10:54;;;;;;;;;;;;;;;;;;5026925;28;20373;-43
2021/05/19 10:13:22;;;;;;;;;;;;;;;;;;5025503;28;20047;-42
2021/05/19 10:15:48;;;;;;;;;;;;;;;;;;5021277;28;20586;-42
2021/05/19 10:18:14;;;;;;;;;;;;;;;;;;5028990;28;20021;-44
2021/05/19 10:20:40;;;;;;;;;;;;;;;;;;5023785;28;19916;-42
2021/05/19 10:23:07;;;;;;;;;;;;;;;;;;5030736;28;19928;-42
2021/05/19 10:25:39;;;;;;;;;;;;;;;;;;5018893;28;19913;-44
2021/05/19 10:28:05;;;;;;;;;;;;;;;;;;5029783;28;19913;-44
2021/05/19 10:30:31;;;;;;;;;;;;;;;;;;5022976;28;19917;-44
2021/05/19 10:32:57;;;;;;;;;;;;;;;;;;5028286;28;19944;-44
2021/05/19 10:35:23;;;;;;;;;;;;;;;;;;5020180;28;19918;-44
2021/05/19 10:37:50;;;;;;;;;;;;;;;;;;5027477;28;19987;-44
2021/05/19 10:40:16;;;;;;;;;;;;;;;;;;5026223;28;20160;-44
2021/05/19 10:42:43;;;;;;;;;;;;;;;;;;5029402;28;19916;-44
2021/05/19 10:45:12;;;;;;;;;;;;;;;;;;5028845;28;20293;-44
2021/05/19 10:47:38;;;;;;;;;;;;;;;;;;5026128;28;19924;-44
2021/05/19 10:58:06;;;;;;;;;;;;;;;;;;5025590;28;19924;-41
2021/05/19 11:00:32;;;;;;;;;;;;;;;;;;5030441;28;19913;-41
2021/05/19 11:03:00;;;;;;;;;;;;;;;;;;5026021;28;19916;-41
2021/05/19 11:05:29;;;;;;;;;;;;;;;;;;5030155;28;19927;-44
2021/05/19 11:07:57;;;;;;;;;;;;;;;;;;5026984;28;19932;-41
2021/05/19 11:10:23;;;;;;;;;;;;;;;;;;5028340;28;19913;-42
2021/05/19 11:12:50;;;;;;;;;;;;;;;;;;5024537;28;19923;-43
2021/05/19 11:15:17;;;;;;;;;;;;;;;;;;5032879;28;19925;-46
2021/05/19 11:20:09;;;;;;;;;;;;;;;;;;5026656;28;19927;-44
2021/05/19 11:22:34;;;;;;;;;;;;;;;;;;5033704;28;19970;-50
2021/05/19 11:25:00;;;;;;;;;;;;;;;;;;5024006;28;20313;-46
2021/05/19 11:27:26;;;;;;;;;;;;;;;;;;5034341;28;19938;-44
2021/05/19 11:29:52;;;;;;;;;;;;;;;;;;5007399;28;20409;-41
2021/05/19 11:32:18;;;;;;;;;;;;;;;;;;5015031;28;19921;-45
2021/05/19 11:34:44;;;;;;;;;;;;;;;;;;5029249;28;20494;-45
2021/05/19 11:37:10;;;;;;;;;;;;;;;;;;5033343;28;19952;-44
2021/05/19 11:39:41;;;;;;;;;;;;;;;;;;5008107;28;19927;-46
2021/05/19 11:42:07;;;;;;;;;;;;;;;;;;5029094;28;19992;-43
2021/05/19 11:44:33;;;;;;;;;;;;;;;;;;5022333;28;20339;-45
2021/05/19 11:46:59;;;;;;;;;;;;;;;;;;5017450;28;19924;-47
2021/05/19 11:49:25;;;;;;;;;;;;;;;;;;5025545;28;20370;-43
2021/05/19 11:51:51;;;;;;;;;;;;;;;;;;5032320;28;19995;-47
2021/05/19 11:54:17;;;;;;;;;;;;;;;;;;5016213;28;19948;-40
2021/05/19 11:56:43;;;;;;;;;;;;;;;;;;5025644;28;19970;-40
2021/05/19 11:59:09;;;;;;;;;;;;;;;;;;5028573;28;19936;-41
2021/05/19 12:01:34;;;;;;;;;;;;;;;;;;5035660;28;19917;-40
2021/05/19 12:04:00;;;;;;;;;;;;;;;;;;5032344;28;20210;-47
2021/05/19 12:06:27;;;;;;;;;;;;;;;;;;5022618;28;19920;-41
2021/05/19 12:08:53;;;;;;;;;;;;;;;;;;5027420;28;19921;-42
2021/05/19 12:11:20;;;;;;;;;;;;;;;;;;5009191;28;19921;-41
2021/05/19 12:13:46;;;;;;;;;;;;;;;;;;5014375;28;20362;-44
2021/05/19 12:16:12;;;;;;;;;;;;;;;;;;5022704;28;19932;-45
2021/05/19 12:18:37;;;;;;;;;;;;;;;;;;5032174;28;19913;-39
2021/05/19 12:21:03;;;;;;;;;;;;;;;;;;5011420;28;20195;-46
2021/05/19 12:23:29;;;;;;;;;;;;;;;;;;5025549;28;20004;-40
2021/05/19 12:25:57;;;;;;;;;;;;;;;;;;5029929;28;20336;-45
2021/05/19 12:28:23;;;;;;;;;;;;;;;;;;5016145;28;19913;-42
2021/05/19 12:30:49;;;;;;;;;;;;;;;;;;5030107;28;19928;-44
2021/05/19 12:33:17;;;;;;;;;;;;;;;;;;5000575;28;19913;-47
2021/05/19 12:35:45;;;;;;;;;;;;;;;;;;5026880;28;19924;-51
2021/05/19 12:38:11;;;;;;;;;;;;;;;;;;5018997;28;19921;-50
2021/05/19 12:40:39;;;;;;;;;;;;;;;;;;5023520;28;20190;-45
2021/05/19 12:43:05;;;;;;;;;;;;;;;;;;5021286;28;20092;-47
2021/05/19 12:45:31;;;;;;;;;;;;;;;;;;5025107;28;19913;-47
2021/05/19 12:47:57;;;;;;;;;;;;;;;;;;5019818;28;20394;-42
2021/05/19 12:50:23;;;;;;;;;;;;;;;;;;5027473;28;19940;-46
2021/05/19 12:52:49;;;;;;;;;;;;;;;;;;5021653;28;19995;-47
2021/05/19 12:55:14;;;;;;;;;;;;;;;;;;5013820;28;20421;-46
2021/05/19 12:57:40;;;;;;;;;;;;;;;;;;5029601;28;19909;-54
2021/05/19 13:00:06;;;;;;;;;;;;;;;;;;5023912;28;20439;-45
2021/05/19 13:02:32;;;;;;;;;;;;;;;;;;5030446;28;19932;-52
2021/05/19 13:04:58;;;;;;;;;;;;;;;;;;5026583;28;19938;-44
2021/05/19 13:07:24;;;;;;;;;;;;;;;;;;5025260;28;19965;-47
2021/05/19 13:09:51;;;;;;;;;;;;;;;;;;5022474;28;19909;-42
2021/05/19 13:12:29;;;;;;;;;;;;;;;;;;5027289;28;19920;-48
2021/05/19 13:14:57;;;;;;;;;;;;;;;;;;5017691;28;19921;-46
2021/05/19 13:17:23;;;;;;;;;;;;;;;;;;5027797;28;19920;-48
2021/05/19 13:19:49;;;;;;;;;;;;;;;;;;5007599;28;20500;-47
2021/05/19 13:22:15;;;;;;;;;;;;;;;;;;5025745;28;19928;-45
2021/05/19 13:24:41;;;;;;;;;;;;;;;;;;5022971;28;19917;-47
2021/05/19 13:27:07;;;;;;;;;;;;;;;;;;5029751;28;19913;-45
2021/05/19 13:29:34;;;;;;;;;;;;;;;;;;5021850;28;19924;-42
2021/05/19 13:32:13;;;;;;;;;;;;;;;;;;5028132;28;20207;-42
2021/05/19 13:36:12;;;;;;;;;;;;;;;;;;5023721;28;19921;-51
2021/05/19 13:37:25;;;;;;;;;;;;;;;;;;5029822;28;19920;-43
2021/05/19 13:39:50;;;;;;;;;;;;;;;;;;5024754;28;21434;-41
2021/05/19 13:42:19;;;;;;;;;;;;;;;;;;5031331;28;20003;-47
2021/05/19 13:44:45;;;;;;;;;;;;;;;;;;5018317;28;19921;-49
2021/05/19 13:47:11;;;;;;;;;;;;;;;;;;5024769;28;19917;-46
2021/05/19 13:49:39;;;;;;;;;;;;;;;;;;5009147;28;19913;-48
2021/05/19 13:52:05;;;;;;;;;;;;;;;;;;5006195;28;20004;-51
2021/05/19 13:54:32;;;;;;;;;;;;;;;;;;5023327;28;20008;-47
2021/05/19 13:56:58;;;;;;;;;;;;;;;;;;5021694;28;19912;-45
2021/05/19 13:59:24;;;;;;;;;;;;;;;;;;5026453;28;19921;-49
2021/05/19 14:01:50;;;;;;;;;;;;;;;;;;5020656;28;19917;-41
2021/05/19 14:04:16;;;;;;;;;;;;;;;;;;5030076;28;19920;-48
2021/05/19 14:06:42;;;;;;;;;;;;;;;;;;5007382;28;19927;-45
2021/05/19 14:09:08;;;;;;;;;;;;;;;;;;5031096;28;19977;-55
2021/05/19 14:11:36;;;;;;;;;;;;;;;;;;5018945;28;19959;-43
2021/05/19 14:29:45;;;;;;;;;;;;;;;;;;5026772;28;20027;-46
2021/05/19 14:32:11;;;;;;;;;;;;;;;;;;5020917;28;20445;-49
2021/05/19 14:34:38;;;;;;;;;;;;;;;;;;5026476;28;19928;-47
2021/05/19 15:01:21;;;;;;;;;;;;;;;;;;5026473;28;20209;-44
2021/05/19 15:03:48;;;;;;;;;;;;;;;;;;5025221;28;19921;-46
2021/05/19 15:06:14;;;;;;;;;;;;;;;;;;5023998;28;19921;-53
2021/05/19 15:08:39;;;;;;;;;;;;;;;;;;5025704;28;19970;-45
2021/05/19 15:11:05;;;;;;;;;;;;;;;;;;5026600;28;19917;-44
2021/05/19 15:13:31;;;;;;;;;;;;;;;;;;5024355;28;20230;-47
2021/05/19 15:15:57;;;;;;;;;;;;;;;;;;5026832;28;19917;-45
2021/05/19 15:18:23;;;;;;;;;;;;;;;;;;5028786;28;19927;-46
2021/05/19 15:20:49;;;;;;;;;;;;;;;;;;5018052;28;19913;-44
2021/05/19 15:23:15;;;;;;;;;;;;;;;;;;5029069;28;19984;-49
2021/05/19 15:25:41;;;;;;;;;;;;;;;;;;5021888;28;20434;-46
2021/05/19 15:28:07;;;;;;;;;;;;;;;;;;5027083;28;19913;-46
2021/05/19 15:30:33;;;;;;;;;;;;;;;;;;5021662;28;19924;-48
2021/05/19 15:32:59;;;;;;;;;;;;;;;;;;5029274;28;19964;-50
2021/05/19 15:49:06;;;;;;;;;;;;;;;;;;6245803;22;1531684;-45
2021/05/19 16:04:26;;;;;;;;;;;;;;;;;;5065799;27;20254;-45
2021/05/19 16:06:51;;;;;;;;;;;;;;;;;;5071170;28;20027;-45
2021/05/19 16:21:27;;;;;;;;;;;;;;;;;;5082163;27;20288;-47
2021/05/19 16:23:53;;;;;;;;;;;;;;;;;;5069315;28;21170;-47
2021/05/19 16:27:58;;;;;;;;;;;;;;;;;;5042963;28;20386;-46
2021/05/19 16:34:14;;;;;;;;;;;;;;;;;;5028650;28;19970;-47
2021/05/19 16:36:40;;;;;;;;;;;;;;;;;;4998340;28;20426;-46
2021/05/19 16:39:06;;;;;;;;;;;;;;;;;;5005763;28;20444;-47
2021/05/19 16:41:32;;;;;;;;;;;;;;;;;;4998682;28;19944;-47
2021/05/19 16:45:08;;;;;;;;;;;;;;;;;;5019092;28;19975;-47
2021/05/19 16:47:34;;;;;;;;;;;;;;;;;;5013528;28;20830;-47
2021/05/19 16:50:00;;;;;;;;;;;;;;;;;;5010757;28;19914;-47
2021/05/19 16:52:26;;;;;;;;;;;;;;;;;;5009161;28;19991;-47
2021/05/19 16:54:51;;;;;;;;;;;;;;;;;;5010073;28;19910;-47
2021/05/19 16:57:17;;;;;;;;;;;;;;;;;;5010923;28;19917;-47
2021/05/19 16:59:43;;;;;;;;;;;;;;;;;;5009119;28;20091;-47
2021/05/19 17:04:51;;;;;;;;;;;;;;;;;;5008617;28;19956;-47
2021/05/19 17:07:17;;;;;;;;;;;;;;;;;;4994208;28;19909;-47
2021/05/19 17:09:43;;;;;;;;;;;;;;;;;;5007317;28;19921;-47
2021/05/19 17:12:09;;;;;;;;;;;;;;;;;;5000443;28;19929;-47
2021/05/19 17:14:35;;;;;;;;;;;;;;;;;;5010646;28;19969;-47
2021/05/19 17:17:01;;;;;;;;;;;;;;;;;;5003590;28;19921;-47
2021/05/19 17:19:29;;;;;;;;;;;;;;;;;;5001104;28;20020;-47
2021/05/19 17:21:55;;;;;;;;;;;;;;;;;;5004246;28;19914;-48
2021/05/19 17:24:21;;;;;;;;;;;;;;;;;;5002837;28;20357;-47
2021/05/19 17:26:47;;;;;;;;;;;;;;;;;;5005327;28;20423;-47
2021/05/19 17:29:13;;;;;;;;;;;;;;;;;;5001334;28;20024;-47
2021/05/19 17:31:39;;;;;;;;;;;;;;;;;;5006706;28;19963;-46
2021/05/19 17:34:04;;;;;;;;;;;;;;;;;;4997350;28;20563;-47
2021/05/19 17:36:31;;;;;;;;;;;;;;;;;;5007376;28;19917;-47
2021/05/19 17:38:57;;;;;;;;;;;;;;;;;;4993932;28;20754;-48
2021/05/19 17:41:33;;;;;;;;;;;;;;;;;;5099241;27;19916;-47
2021/05/19 17:43:59;;;;;;;;;;;;;;;;;;5093000;27;19922;-47
2021/05/19 17:47:47;;;;;;;;;;;;;;;;;;5045186;28;19921;-49
2021/05/19 17:50:13;;;;;;;;;;;;;;;;;;5018586;28;19923;-45
2021/05/19 17:52:39;;;;;;;;;;;;;;;;;;5055091;28;19961;-46
2021/05/19 17:55:07;;;;;;;;;;;;;;;;;;5032290;28;20504;-46
2021/05/19 17:57:33;;;;;;;;;;;;;;;;;;5026322;28;19956;-47
2021/05/19 17:59:59;;;;;;;;;;;;;;;;;;5016794;28;19953;-46
2021/05/19 18:02:25;;;;;;;;;;;;;;;;;;5026311;28;19917;-46
2021/05/19 18:04:51;;;;;;;;;;;;;;;;;;5020424;28;19966;-46
2021/05/19 18:07:18;;;;;;;;;;;;;;;;;;5026933;28;19956;-46
2021/05/19 18:09:44;;;;;;;;;;;;;;;;;;5020404;28;20043;-45
2021/05/19 18:12:12;;;;;;;;;;;;;;;;;;5024220;28;20066;-46
2021/05/19 18:14:39;;;;;;;;;;;;;;;;;;5023749;28;19995;-46
2021/05/19 18:17:05;;;;;;;;;;;;;;;;;;5021639;28;20026;-46
2021/05/19 18:19:31;;;;;;;;;;;;;;;;;;5027378;28;19960;-46
2021/05/19 18:21:57;;;;;;;;;;;;;;;;;;5023066;28;19921;-46
2021/05/19 18:24:23;;;;;;;;;;;;;;;;;;5028280;28;20291;-46